sensor_id;sensor_type;location;lat;lon;timestamp;P1;durP1;ratioP1;P2;durP2;ratioP2
48215;SDS011;34005;48.844;10.098;2022-08-19T00:00:16;9.82;;;8.90;;
48215;SDS011;34005;48.844;10.098;2022-08-19T00:02:47;9.60;;;8.70;;
48215;SDS011;34005;48.844;10.098;2022-08-19T00:05:25;10.68;;;9.68;;
48215;SDS011;34005;48.844;10.098;2022-08-19T00:08:14;10.95;;;9.82;;
48215;SDS011;34005;48.844;10.098;2022-08-19T00:10:46;10.20;;;9.30;;
48215;SDS011;34005;48.844;10.098;2022-08-19T00:13:20;10.48;;;9.52;;
48215;SDS011;34005;48.844;10.098;2022-08-19T00:15:50;11.32;;;10.30;;
48215;SDS011;34005;48.844;10.098;2022-08-19T00:18:33;11.02;;;9.93;;
48215;SDS011;34005;48.844;10.098;2022-08-19T00:21:06;11.88;;;10.77;;
48215;SDS011;34005;48.844;10.098;2022-08-19T00:23:39;12.63;;;10.80;;
48215;SDS011;34005;48.844;10.098;2022-08-19T00:26:10;13.07;;;11.87;;
48215;SDS011;34005;48.844;10.098;2022-08-19T00:28:42;11.27;;;10.07;;
48215;SDS011;34005;48.844;10.098;2022-08-19T00:31:17;12.95;;;11.65;;
48215;SDS011;34005;48.844;10.098;2022-08-19T00:33:48;11.82;;;10.73;;
48215;SDS011;34005;48.844;10.098;2022-08-19T00:36:21;13.70;;;12.35;;
48215;SDS011;34005;48.844;10.098;2022-08-19T00:38:52;12.82;;;11.63;;
48215;SDS011;34005;48.844;10.098;2022-08-19T00:41:24;13.32;;;12.05;;
48215;SDS011;34005;48.844;10.098;2022-08-19T00:44:12;14.55;;;13.13;;
48215;SDS011;34005;48.844;10.098;2022-08-19T00:46:55;13.15;;;11.70;;
48215;SDS011;34005;48.844;10.098;2022-08-19T00:49:29;13.48;;;12.23;;
48215;SDS011;34005;48.844;10.098;2022-08-19T00:52:11;14.50;;;13.00;;
48215;SDS011;34005;48.844;10.098;2022-08-19T00:54:44;13.23;;;11.98;;
48215;SDS011;34005;48.844;10.098;2022-08-19T00:57:27;14.03;;;12.63;;
48215;SDS011;34005;48.844;10.098;2022-08-19T01:00:05;14.23;;;12.82;;
48215;SDS011;34005;48.844;10.098;2022-08-19T01:02:41;13.70;;;12.00;;
48215;SDS011;34005;48.844;10.098;2022-08-19T01:05:33;14.68;;;13.15;;
48215;SDS011;34005;48.844;10.098;2022-08-19T01:08:15;14.57;;;13.00;;
48215;SDS011;34005;48.844;10.098;2022-08-19T01:10:55;15.05;;;13.32;;
48215;SDS011;34005;48.844;10.098;2022-08-19T01:13:38;14.20;;;12.57;;
48215;SDS011;34005;48.844;10.098;2022-08-19T01:16:15;15.32;;;13.15;;
48215;SDS011;34005;48.844;10.098;2022-08-19T01:18:50;15.68;;;14.02;;
48215;SDS011;34005;48.844;10.098;2022-08-19T01:21:27;14.45;;;12.98;;
48215;SDS011;34005;48.844;10.098;2022-08-19T01:24:04;14.85;;;13.43;;
48215;SDS011;34005;48.844;10.098;2022-08-19T01:26:40;14.93;;;13.52;;
48215;SDS011;34005;48.844;10.098;2022-08-19T01:29:12;14.15;;;12.65;;
48215;SDS011;34005;48.844;10.098;2022-08-19T01:31:51;14.82;;;13.32;;
48215;SDS011;34005;48.844;10.098;2022-08-19T01:34:21;14.60;;;13.25;;
48215;SDS011;34005;48.844;10.098;2022-08-19T01:36:57;16.05;;;14.55;;
48215;SDS011;34005;48.844;10.098;2022-08-19T01:39:35;13.68;;;12.27;;
48215;SDS011;34005;48.844;10.098;2022-08-19T01:42:08;13.50;;;12.20;;
48215;SDS011;34005;48.844;10.098;2022-08-19T01:44:39;14.70;;;12.98;;
48215;SDS011;34005;48.844;10.098;2022-08-19T01:47:07;13.88;;;12.57;;
48215;SDS011;34005;48.844;10.098;2022-08-19T01:49:36;14.45;;;13.10;;
48215;SDS011;34005;48.844;10.098;2022-08-19T01:52:05;14.15;;;12.75;;
48215;SDS011;34005;48.844;10.098;2022-08-19T01:54:34;15.45;;;13.85;;
48215;SDS011;34005;48.844;10.098;2022-08-19T01:57:03;14.15;;;12.75;;
48215;SDS011;34005;48.844;10.098;2022-08-19T01:59:34;14.27;;;12.95;;
48215;SDS011;34005;48.844;10.098;2022-08-19T02:02:02;15.60;;;14.07;;
48215;SDS011;34005;48.844;10.098;2022-08-19T02:04:33;15.00;;;13.50;;
48215;SDS011;34005;48.844;10.098;2022-08-19T02:07:01;13.30;;;11.90;;
48215;SDS011;34005;48.844;10.098;2022-08-19T02:09:30;15.13;;;13.60;;
48215;SDS011;34005;48.844;10.098;2022-08-19T02:11:59;15.25;;;13.75;;
48215;SDS011;34005;48.844;10.098;2022-08-19T02:14:27;15.02;;;13.43;;
48215;SDS011;34005;48.844;10.098;2022-08-19T02:16:54;16.00;;;14.30;;
48215;SDS011;34005;48.844;10.098;2022-08-19T02:19:22;15.48;;;13.88;;
48215;SDS011;34005;48.844;10.098;2022-08-19T02:21:50;16.15;;;14.55;;
48215;SDS011;34005;48.844;10.098;2022-08-19T02:24:17;14.82;;;13.32;;
48215;SDS011;34005;48.844;10.098;2022-08-19T02:26:45;14.95;;;13.45;;
48215;SDS011;34005;48.844;10.098;2022-08-19T02:29:14;15.40;;;13.18;;
48215;SDS011;34005;48.844;10.098;2022-08-19T02:31:42;14.25;;;12.85;;
48215;SDS011;34005;48.844;10.098;2022-08-19T02:34:09;14.88;;;13.43;;
48215;SDS011;34005;48.844;10.098;2022-08-19T02:36:37;16.05;;;14.48;;
48215;SDS011;34005;48.844;10.098;2022-08-19T02:39:08;16.95;;;14.82;;
48215;SDS011;34005;48.844;10.098;2022-08-19T02:41:34;14.85;;;13.38;;
48215;SDS011;34005;48.844;10.098;2022-08-19T02:44:03;17.13;;;13.43;;
48215;SDS011;34005;48.844;10.098;2022-08-19T02:46:52;15.93;;;14.27;;
48215;SDS011;34005;48.844;10.098;2022-08-19T02:49:20;16.55;;;13.82;;
48215;SDS011;34005;48.844;10.098;2022-08-19T02:51:47;15.20;;;13.70;;
48215;SDS011;34005;48.844;10.098;2022-08-19T02:54:15;15.95;;;14.23;;
48215;SDS011;34005;48.844;10.098;2022-08-19T02:56:43;14.43;;;13.02;;
48215;SDS011;34005;48.844;10.098;2022-08-19T02:59:11;15.40;;;13.80;;
48215;SDS011;34005;48.844;10.098;2022-08-19T03:01:39;14.90;;;13.05;;
48215;SDS011;34005;48.844;10.098;2022-08-19T03:04:10;15.48;;;13.65;;
48215;SDS011;34005;48.844;10.098;2022-08-19T03:06:41;18.02;;;14.57;;
48215;SDS011;34005;48.844;10.098;2022-08-19T03:09:11;15.40;;;13.90;;
48215;SDS011;34005;48.844;10.098;2022-08-19T03:11:40;14.77;;;13.13;;
48215;SDS011;34005;48.844;10.098;2022-08-19T03:14:08;15.00;;;13.50;;
48215;SDS011;34005;48.844;10.098;2022-08-19T03:16:40;16.05;;;14.25;;
48215;SDS011;34005;48.844;10.098;2022-08-19T03:21:37;15.93;;;14.40;;
48215;SDS011;34005;48.844;10.098;2022-08-19T03:24:06;15.15;;;13.63;;
48215;SDS011;34005;48.844;10.098;2022-08-19T03:26:37;17.10;;;15.27;;
48215;SDS011;34005;48.844;10.098;2022-08-19T03:29:07;15.63;;;13.98;;
48215;SDS011;34005;48.844;10.098;2022-08-19T03:31:39;18.02;;;15.23;;
48215;SDS011;34005;48.844;10.098;2022-08-19T03:34:20;17.45;;;14.32;;
48215;SDS011;34005;48.844;10.098;2022-08-19T03:36:52;16.38;;;14.15;;
48215;SDS011;34005;48.844;10.098;2022-08-19T03:39:21;15.38;;;13.88;;
48215;SDS011;34005;48.844;10.098;2022-08-19T03:41:50;15.52;;;13.95;;
48215;SDS011;34005;48.844;10.098;2022-08-19T03:44:39;17.42;;;15.63;;
48215;SDS011;34005;48.844;10.098;2022-08-19T03:47:08;15.63;;;14.02;;
48215;SDS011;34005;48.844;10.098;2022-08-19T03:49:39;15.20;;;13.80;;
48215;SDS011;34005;48.844;10.098;2022-08-19T03:52:07;18.58;;;15.13;;
48215;SDS011;34005;48.844;10.098;2022-08-19T03:54:35;18.10;;;15.18;;
48215;SDS011;34005;48.844;10.098;2022-08-19T03:57:04;18.65;;;14.38;;
48215;SDS011;34005;48.844;10.098;2022-08-19T03:59:33;17.60;;;15.80;;
48215;SDS011;34005;48.844;10.098;2022-08-19T04:02:06;17.42;;;15.63;;
48215;SDS011;34005;48.844;10.098;2022-08-19T04:04:40;17.58;;;15.77;;
48215;SDS011;34005;48.844;10.098;2022-08-19T04:07:10;16.30;;;14.60;;
48215;SDS011;34005;48.844;10.098;2022-08-19T04:09:42;17.08;;;15.25;;
48215;SDS011;34005;48.844;10.098;2022-08-19T04:12:10;16.73;;;15.02;;
48215;SDS011;34005;48.844;10.098;2022-08-19T04:14:37;18.17;;;16.38;;
48215;SDS011;34005;48.844;10.098;2022-08-19T04:17:05;16.60;;;14.93;;
48215;SDS011;34005;48.844;10.098;2022-08-19T04:19:33;16.05;;;14.43;;
48215;SDS011;34005;48.844;10.098;2022-08-19T04:22:06;17.00;;;15.20;;
48215;SDS011;34005;48.844;10.098;2022-08-19T04:24:34;18.40;;;16.42;;
48215;SDS011;34005;48.844;10.098;2022-08-19T04:27:02;16.98;;;14.88;;
48215;SDS011;34005;48.844;10.098;2022-08-19T04:29:31;17.17;;;15.48;;
48215;SDS011;34005;48.844;10.098;2022-08-19T04:32:01;17.60;;;15.32;;
48215;SDS011;34005;48.844;10.098;2022-08-19T04:34:35;17.35;;;15.43;;
48215;SDS011;34005;48.844;10.098;2022-08-19T04:37:25;16.92;;;15.23;;
48215;SDS011;34005;48.844;10.098;2022-08-19T04:40:01;17.25;;;15.20;;
48215;SDS011;34005;48.844;10.098;2022-08-19T04:42:48;17.95;;;15.38;;
48215;SDS011;34005;48.844;10.098;2022-08-19T04:45:16;18.33;;;16.33;;
48215;SDS011;34005;48.844;10.098;2022-08-19T04:47:43;17.30;;;15.35;;
48215;SDS011;34005;48.844;10.098;2022-08-19T04:50:23;17.67;;;15.88;;
48215;SDS011;34005;48.844;10.098;2022-08-19T04:52:57;18.60;;;16.63;;
48215;SDS011;34005;48.844;10.098;2022-08-19T04:58:04;16.73;;;14.90;;
48215;SDS011;34005;48.844;10.098;2022-08-19T05:00:32;16.92;;;15.20;;
48215;SDS011;34005;48.844;10.098;2022-08-19T05:03:03;20.75;;;16.83;;
48215;SDS011;34005;48.844;10.098;2022-08-19T05:05:33;18.33;;;16.27;;
48215;SDS011;34005;48.844;10.098;2022-08-19T05:08:12;18.08;;;16.23;;
48215;SDS011;34005;48.844;10.098;2022-08-19T05:10:57;18.42;;;16.55;;
48215;SDS011;34005;48.844;10.098;2022-08-19T05:13:26;17.85;;;15.85;;
48215;SDS011;34005;48.844;10.098;2022-08-19T05:15:54;17.90;;;15.98;;
48215;SDS011;34005;48.844;10.098;2022-08-19T05:18:24;18.58;;;16.58;;
48215;SDS011;34005;48.844;10.098;2022-08-19T05:21:10;17.20;;;15.40;;
48215;SDS011;34005;48.844;10.098;2022-08-19T05:23:58;16.75;;;15.00;;
48215;SDS011;34005;48.844;10.098;2022-08-19T05:26:26;18.63;;;16.48;;
48215;SDS011;34005;48.844;10.098;2022-08-19T05:28:54;19.67;;;17.58;;
48215;SDS011;34005;48.844;10.098;2022-08-19T05:31:22;18.33;;;16.48;;
48215;SDS011;34005;48.844;10.098;2022-08-19T05:33:49;18.90;;;15.73;;
48215;SDS011;34005;48.844;10.098;2022-08-19T05:36:17;18.92;;;16.88;;
48215;SDS011;34005;48.844;10.098;2022-08-19T05:38:45;18.50;;;16.25;;
48215;SDS011;34005;48.844;10.098;2022-08-19T05:41:17;18.40;;;16.50;;
48215;SDS011;34005;48.844;10.098;2022-08-19T05:43:44;20.52;;;15.93;;
48215;SDS011;34005;48.844;10.098;2022-08-19T05:46:16;16.70;;;15.02;;
48215;SDS011;34005;48.844;10.098;2022-08-19T05:48:53;18.75;;;15.82;;
48215;SDS011;34005;48.844;10.098;2022-08-19T05:51:22;18.25;;;15.90;;
48215;SDS011;34005;48.844;10.098;2022-08-19T05:53:54;18.33;;;14.70;;
48215;SDS011;34005;48.844;10.098;2022-08-19T05:56:23;18.35;;;16.05;;
48215;SDS011;34005;48.844;10.098;2022-08-19T05:58:51;17.73;;;15.63;;
48215;SDS011;34005;48.844;10.098;2022-08-19T06:01:20;18.92;;;16.95;;
48215;SDS011;34005;48.844;10.098;2022-08-19T06:03:47;19.23;;;16.92;;
48215;SDS011;34005;48.844;10.098;2022-08-19T06:06:15;18.40;;;16.05;;
48215;SDS011;34005;48.844;10.098;2022-08-19T06:08:43;18.42;;;16.40;;
48215;SDS011;34005;48.844;10.098;2022-08-19T06:11:15;17.20;;;14.93;;
48215;SDS011;34005;48.844;10.098;2022-08-19T06:13:47;18.63;;;16.73;;
48215;SDS011;34005;48.844;10.098;2022-08-19T06:16:25;22.08;;;17.20;;
48215;SDS011;34005;48.844;10.098;2022-08-19T06:18:54;18.58;;;16.20;;
48215;SDS011;34005;48.844;10.098;2022-08-19T06:21:25;20.25;;;16.85;;
48215;SDS011;34005;48.844;10.098;2022-08-19T06:23:54;18.05;;;16.25;;
48215;SDS011;34005;48.844;10.098;2022-08-19T06:26:23;18.23;;;16.27;;
48215;SDS011;34005;48.844;10.098;2022-08-19T06:28:52;19.67;;;16.27;;
48215;SDS011;34005;48.844;10.098;2022-08-19T06:31:21;19.48;;;16.52;;
48215;SDS011;34005;48.844;10.098;2022-08-19T06:33:50;18.23;;;16.33;;
48215;SDS011;34005;48.844;10.098;2022-08-19T06:36:19;21.80;;;16.73;;
48215;SDS011;34005;48.844;10.098;2022-08-19T06:38:51;17.25;;;15.38;;
48215;SDS011;34005;48.844;10.098;2022-08-19T06:41:18;21.10;;;16.92;;
48215;SDS011;34005;48.844;10.098;2022-08-19T06:43:46;19.08;;;16.73;;
48215;SDS011;34005;48.844;10.098;2022-08-19T06:46:20;18.85;;;16.52;;
48215;SDS011;34005;48.844;10.098;2022-08-19T06:48:49;20.50;;;17.08;;
48215;SDS011;34005;48.844;10.098;2022-08-19T06:51:19;19.35;;;16.58;;
48215;SDS011;34005;48.844;10.098;2022-08-19T06:53:51;20.35;;;17.05;;
48215;SDS011;34005;48.844;10.098;2022-08-19T06:56:21;22.25;;;17.08;;
48215;SDS011;34005;48.844;10.098;2022-08-19T06:58:51;22.52;;;17.52;;
48215;SDS011;34005;48.844;10.098;2022-08-19T07:01:20;20.52;;;16.75;;
48215;SDS011;34005;48.844;10.098;2022-08-19T07:03:48;22.15;;;16.92;;
48215;SDS011;34005;48.844;10.098;2022-08-19T07:06:17;21.83;;;17.23;;
48215;SDS011;34005;48.844;10.098;2022-08-19T07:09:06;18.65;;;16.67;;
48215;SDS011;34005;48.844;10.098;2022-08-19T07:11:37;20.65;;;17.05;;
48215;SDS011;34005;48.844;10.098;2022-08-19T07:14:04;18.63;;;16.80;;
48215;SDS011;34005;48.844;10.098;2022-08-19T07:16:45;17.98;;;15.55;;
48215;SDS011;34005;48.844;10.098;2022-08-19T07:19:14;18.48;;;16.45;;
48215;SDS011;34005;48.844;10.098;2022-08-19T07:21:44;22.05;;;17.90;;
48215;SDS011;34005;48.844;10.098;2022-08-19T07:24:12;20.10;;;17.95;;
48215;SDS011;34005;48.844;10.098;2022-08-19T07:26:42;19.30;;;17.20;;
48215;SDS011;34005;48.844;10.098;2022-08-19T07:29:11;40.40;;;34.63;;
48215;SDS011;34005;48.844;10.098;2022-08-19T07:31:40;38.20;;;31.25;;
48215;SDS011;34005;48.844;10.098;2022-08-19T07:34:12;23.77;;;19.45;;
48215;SDS011;34005;48.844;10.098;2022-08-19T07:36:42;23.27;;;19.30;;
48215;SDS011;34005;48.844;10.098;2022-08-19T07:39:12;19.83;;;16.58;;
48215;SDS011;34005;48.844;10.098;2022-08-19T07:41:41;20.38;;;17.20;;
48215;SDS011;34005;48.844;10.098;2022-08-19T07:44:09;18.80;;;16.67;;
48215;SDS011;34005;48.844;10.098;2022-08-19T07:46:40;32.60;;;23.92;;
48215;SDS011;34005;48.844;10.098;2022-08-19T07:49:14;21.85;;;19.00;;
48215;SDS011;34005;48.844;10.098;2022-08-19T07:51:45;20.13;;;17.83;;
48215;SDS011;34005;48.844;10.098;2022-08-19T07:54:15;25.02;;;17.65;;
48215;SDS011;34005;48.844;10.098;2022-08-19T07:56:43;19.80;;;16.65;;
48215;SDS011;34005;48.844;10.098;2022-08-19T07:59:10;20.50;;;17.85;;
48215;SDS011;34005;48.844;10.098;2022-08-19T08:01:39;18.63;;;16.70;;
48215;SDS011;34005;48.844;10.098;2022-08-19T08:04:07;18.83;;;15.75;;
48215;SDS011;34005;48.844;10.098;2022-08-19T08:06:53;20.95;;;17.67;;
48215;SDS011;34005;48.844;10.098;2022-08-19T08:09:40;19.83;;;17.75;;
48215;SDS011;34005;48.844;10.098;2022-08-19T08:12:16;20.05;;;17.77;;
48215;SDS011;34005;48.844;10.098;2022-08-19T08:15:00;18.88;;;16.88;;
48215;SDS011;34005;48.844;10.098;2022-08-19T08:17:33;20.45;;;16.83;;
48215;SDS011;34005;48.844;10.098;2022-08-19T08:20:17;18.95;;;16.92;;
48215;SDS011;34005;48.844;10.098;2022-08-19T08:22:47;20.15;;;17.10;;
48215;SDS011;34005;48.844;10.098;2022-08-19T08:25:33;21.33;;;17.08;;
48215;SDS011;34005;48.844;10.098;2022-08-19T08:28:02;21.95;;;18.60;;
48215;SDS011;34005;48.844;10.098;2022-08-19T08:30:31;22.83;;;18.42;;
48215;SDS011;34005;48.844;10.098;2022-08-19T08:33:01;22.30;;;18.30;;
48215;SDS011;34005;48.844;10.098;2022-08-19T08:35:30;23.33;;;19.25;;
48215;SDS011;34005;48.844;10.098;2022-08-19T08:37:59;22.88;;;19.65;;
48215;SDS011;34005;48.844;10.098;2022-08-19T08:40:29;27.63;;;19.98;;
48215;SDS011;34005;48.844;10.098;2022-08-19T08:43:02;24.40;;;19.98;;
48215;SDS011;34005;48.844;10.098;2022-08-19T08:45:40;25.92;;;20.85;;
48215;SDS011;34005;48.844;10.098;2022-08-19T08:48:20;23.00;;;18.58;;
48215;SDS011;34005;48.844;10.098;2022-08-19T08:50:52;20.13;;;17.13;;
48215;SDS011;34005;48.844;10.098;2022-08-19T08:53:24;22.27;;;17.98;;
48215;SDS011;34005;48.844;10.098;2022-08-19T08:55:57;21.02;;;17.30;;
48215;SDS011;34005;48.844;10.098;2022-08-19T08:58:29;20.13;;;17.10;;
48215;SDS011;34005;48.844;10.098;2022-08-19T09:01:08;19.33;;;17.23;;
48215;SDS011;34005;48.844;10.098;2022-08-19T09:03:38;19.42;;;16.63;;
48215;SDS011;34005;48.844;10.098;2022-08-19T09:06:10;22.65;;;18.90;;
48215;SDS011;34005;48.844;10.098;2022-08-19T09:08:46;20.02;;;17.35;;
48215;SDS011;34005;48.844;10.098;2022-08-19T09:11:23;21.58;;;17.92;;
48215;SDS011;34005;48.844;10.098;2022-08-19T09:14:10;22.98;;;18.55;;
48215;SDS011;34005;48.844;10.098;2022-08-19T09:17:06;22.70;;;18.17;;
48215;SDS011;34005;48.844;10.098;2022-08-19T09:19:36;22.10;;;18.85;;
48215;SDS011;34005;48.844;10.098;2022-08-19T09:22:16;23.48;;;18.30;;
48215;SDS011;34005;48.844;10.098;2022-08-19T09:24:53;21.73;;;18.20;;
48215;SDS011;34005;48.844;10.098;2022-08-19T09:27:22;22.75;;;18.55;;
48215;SDS011;34005;48.844;10.098;2022-08-19T09:30:10;19.85;;;17.08;;
48215;SDS011;34005;48.844;10.098;2022-08-19T09:32:42;21.38;;;18.25;;
48215;SDS011;34005;48.844;10.098;2022-08-19T09:35:11;24.08;;;20.40;;
48215;SDS011;34005;48.844;10.098;2022-08-19T09:37:41;23.92;;;18.38;;
48215;SDS011;34005;48.844;10.098;2022-08-19T09:40:11;20.42;;;17.35;;
48215;SDS011;34005;48.844;10.098;2022-08-19T09:42:40;19.70;;;16.45;;
48215;SDS011;34005;48.844;10.098;2022-08-19T09:45:16;19.02;;;15.90;;
48215;SDS011;34005;48.844;10.098;2022-08-19T09:47:47;23.42;;;17.80;;
48215;SDS011;34005;48.844;10.098;2022-08-19T09:50:19;25.03;;;18.40;;
48215;SDS011;34005;48.844;10.098;2022-08-19T09:52:47;20.60;;;17.50;;
48215;SDS011;34005;48.844;10.098;2022-08-19T09:55:22;21.35;;;16.98;;
48215;SDS011;34005;48.844;10.098;2022-08-19T09:57:57;19.63;;;16.15;;
48215;SDS011;34005;48.844;10.098;2022-08-19T10:00:24;20.73;;;17.83;;
48215;SDS011;34005;48.844;10.098;2022-08-19T10:02:52;19.77;;;17.55;;
48215;SDS011;34005;48.844;10.098;2022-08-19T10:05:20;21.17;;;17.33;;
48215;SDS011;34005;48.844;10.098;2022-08-19T10:08:07;20.80;;;17.73;;
48215;SDS011;34005;48.844;10.098;2022-08-19T10:10:40;21.75;;;18.80;;
48215;SDS011;34005;48.844;10.098;2022-08-19T10:13:12;23.77;;;19.73;;
48215;SDS011;34005;48.844;10.098;2022-08-19T10:15:41;19.45;;;16.73;;
48215;SDS011;34005;48.844;10.098;2022-08-19T10:18:14;20.65;;;16.33;;
48215;SDS011;34005;48.844;10.098;2022-08-19T10:20:42;20.65;;;16.00;;
48215;SDS011;34005;48.844;10.098;2022-08-19T10:23:17;18.10;;;15.63;;
48215;SDS011;34005;48.844;10.098;2022-08-19T10:25:46;20.65;;;16.85;;
48215;SDS011;34005;48.844;10.098;2022-08-19T10:28:14;20.02;;;16.40;;
48215;SDS011;34005;48.844;10.098;2022-08-19T10:30:45;20.92;;;15.40;;
48215;SDS011;34005;48.844;10.098;2022-08-19T10:33:13;22.58;;;17.40;;
48215;SDS011;34005;48.844;10.098;2022-08-19T10:36:01;21.08;;;16.13;;
48215;SDS011;34005;48.844;10.098;2022-08-19T10:38:30;22.45;;;16.15;;
48215;SDS011;34005;48.844;10.098;2022-08-19T10:41:05;18.73;;;16.10;;
48215;SDS011;34005;48.844;10.098;2022-08-19T10:43:34;19.60;;;16.45;;
48215;SDS011;34005;48.844;10.098;2022-08-19T10:46:03;20.77;;;16.45;;
48215;SDS011;34005;48.844;10.098;2022-08-19T10:48:38;20.00;;;16.48;;
48215;SDS011;34005;48.844;10.098;2022-08-19T10:51:06;21.90;;;16.38;;
48215;SDS011;34005;48.844;10.098;2022-08-19T10:53:52;19.60;;;15.50;;
48215;SDS011;34005;48.844;10.098;2022-08-19T10:56:22;19.17;;;15.25;;
48215;SDS011;34005;48.844;10.098;2022-08-19T10:59:07;23.10;;;17.35;;
48215;SDS011;34005;48.844;10.098;2022-08-19T11:01:35;23.95;;;18.42;;
48215;SDS011;34005;48.844;10.098;2022-08-19T11:04:04;18.17;;;16.00;;
48215;SDS011;34005;48.844;10.098;2022-08-19T11:06:35;23.13;;;17.17;;
48215;SDS011;34005;48.844;10.098;2022-08-19T11:09:04;21.85;;;17.35;;
48215;SDS011;34005;48.844;10.098;2022-08-19T11:11:34;20.65;;;16.70;;
48215;SDS011;34005;48.844;10.098;2022-08-19T11:14:06;16.75;;;14.80;;
48215;SDS011;34005;48.844;10.098;2022-08-19T11:16:35;16.83;;;14.90;;
48215;SDS011;34005;48.844;10.098;2022-08-19T11:19:08;15.38;;;13.77;;
48215;SDS011;34005;48.844;10.098;2022-08-19T11:21:37;17.15;;;15.32;;
48215;SDS011;34005;48.844;10.098;2022-08-19T11:24:08;18.15;;;14.40;;
48215;SDS011;34005;48.844;10.098;2022-08-19T11:26:39;16.90;;;14.60;;
48215;SDS011;34005;48.844;10.098;2022-08-19T11:29:08;22.35;;;15.40;;
48215;SDS011;34005;48.844;10.098;2022-08-19T11:31:39;16.88;;;15.07;;
48215;SDS011;34005;48.844;10.098;2022-08-19T11:34:09;30.85;;;18.25;;
48215;SDS011;34005;48.844;10.098;2022-08-19T11:36:39;18.30;;;16.25;;
48215;SDS011;34005;48.844;10.098;2022-08-19T11:39:09;21.00;;;16.70;;
48215;SDS011;34005;48.844;10.098;2022-08-19T11:41:38;19.65;;;15.30;;
48215;SDS011;34005;48.844;10.098;2022-08-19T11:44:06;18.40;;;16.38;;
48215;SDS011;34005;48.844;10.098;2022-08-19T11:46:35;18.13;;;16.13;;
48215;SDS011;34005;48.844;10.098;2022-08-19T11:49:04;17.60;;;15.30;;
48215;SDS011;34005;48.844;10.098;2022-08-19T11:51:39;20.30;;;15.77;;
48215;SDS011;34005;48.844;10.098;2022-08-19T11:54:08;19.98;;;16.17;;
48215;SDS011;34005;48.844;10.098;2022-08-19T11:56:36;21.10;;;17.20;;
48215;SDS011;34005;48.844;10.098;2022-08-19T11:59:05;22.65;;;18.27;;
48215;SDS011;34005;48.844;10.098;2022-08-19T12:01:39;21.58;;;18.17;;
48215;SDS011;34005;48.844;10.098;2022-08-19T12:04:08;22.42;;;17.85;;
48215;SDS011;34005;48.844;10.098;2022-08-19T12:06:37;20.42;;;17.33;;
48215;SDS011;34005;48.844;10.098;2022-08-19T12:09:07;20.67;;;17.17;;
48215;SDS011;34005;48.844;10.098;2022-08-19T12:11:36;26.10;;;18.85;;
48215;SDS011;34005;48.844;10.098;2022-08-19T12:14:08;20.55;;;18.25;;
48215;SDS011;34005;48.844;10.098;2022-08-19T12:16:40;20.92;;;17.58;;
48215;SDS011;34005;48.844;10.098;2022-08-19T12:19:17;22.65;;;17.95;;
48215;SDS011;34005;48.844;10.098;2022-08-19T12:21:47;20.75;;;16.48;;
48215;SDS011;34005;48.844;10.098;2022-08-19T12:24:16;20.73;;;17.42;;
48215;SDS011;34005;48.844;10.098;2022-08-19T12:26:48;20.27;;;17.15;;
48215;SDS011;34005;48.844;10.098;2022-08-19T12:29:20;21.05;;;17.92;;
48215;SDS011;34005;48.844;10.098;2022-08-19T12:31:55;20.00;;;16.88;;
48215;SDS011;34005;48.844;10.098;2022-08-19T12:34:27;20.38;;;17.13;;
48215;SDS011;34005;48.844;10.098;2022-08-19T12:36:56;20.75;;;17.20;;
48215;SDS011;34005;48.844;10.098;2022-08-19T12:39:24;20.77;;;16.17;;
48215;SDS011;34005;48.844;10.098;2022-08-19T12:41:52;19.67;;;16.58;;
48215;SDS011;34005;48.844;10.098;2022-08-19T12:44:22;21.58;;;17.45;;
48215;SDS011;34005;48.844;10.098;2022-08-19T12:46:57;20.52;;;16.90;;
48215;SDS011;34005;48.844;10.098;2022-08-19T12:49:27;20.15;;;16.52;;
48215;SDS011;34005;48.844;10.098;2022-08-19T12:52:15;21.90;;;18.10;;
48215;SDS011;34005;48.844;10.098;2022-08-19T12:54:48;21.08;;;17.40;;
48215;SDS011;34005;48.844;10.098;2022-08-19T12:57:20;19.08;;;16.88;;
48215;SDS011;34005;48.844;10.098;2022-08-19T12:59:58;18.58;;;16.10;;
48215;SDS011;34005;48.844;10.098;2022-08-19T13:02:29;20.02;;;15.85;;
48215;SDS011;34005;48.844;10.098;2022-08-19T13:05:04;18.88;;;15.88;;
48215;SDS011;34005;48.844;10.098;2022-08-19T13:07:35;19.45;;;16.65;;
48215;SDS011;34005;48.844;10.098;2022-08-19T13:10:03;18.02;;;15.75;;
48215;SDS011;34005;48.844;10.098;2022-08-19T13:12:32;17.50;;;15.13;;
48215;SDS011;34005;48.844;10.098;2022-08-19T13:15:01;20.23;;;15.20;;
48215;SDS011;34005;48.844;10.098;2022-08-19T13:17:36;18.52;;;15.10;;
48215;SDS011;34005;48.844;10.098;2022-08-19T13:20:04;18.35;;;15.52;;
48215;SDS011;34005;48.844;10.098;2022-08-19T13:22:33;16.75;;;14.23;;
48215;SDS011;34005;48.844;10.098;2022-08-19T13:25:01;15.63;;;13.85;;
48215;SDS011;34005;48.844;10.098;2022-08-19T13:27:29;16.05;;;12.73;;
48215;SDS011;34005;48.844;10.098;2022-08-19T13:29:57;11.88;;;10.68;;
48215;SDS011;34005;48.844;10.098;2022-08-19T13:32:44;12.60;;;10.10;;
48215;SDS011;34005;48.844;10.098;2022-08-19T13:35:29;13.65;;;11.73;;
48215;SDS011;34005;48.844;10.098;2022-08-19T13:37:57;11.75;;;9.50;;
48215;SDS011;34005;48.844;10.098;2022-08-19T13:40:24;9.30;;;8.30;;
48215;SDS011;34005;48.844;10.098;2022-08-19T13:42:53;9.65;;;8.50;;
48215;SDS011;34005;48.844;10.098;2022-08-19T13:45:23;11.02;;;9.55;;
48215;SDS011;34005;48.844;10.098;2022-08-19T13:47:53;9.10;;;8.20;;
48215;SDS011;34005;48.844;10.098;2022-08-19T13:50:26;10.48;;;9.43;;
48215;SDS011;34005;48.844;10.098;2022-08-19T13:52:55;11.65;;;9.48;;
48215;SDS011;34005;48.844;10.098;2022-08-19T13:55:23;13.35;;;9.68;;
48215;SDS011;34005;48.844;10.098;2022-08-19T13:57:52;11.90;;;10.20;;
48215;SDS011;34005;48.844;10.098;2022-08-19T14:00:20;11.10;;;9.80;;
48215;SDS011;34005;48.844;10.098;2022-08-19T14:02:51;10.13;;;9.10;;
48215;SDS011;34005;48.844;10.098;2022-08-19T14:05:22;13.57;;;10.40;;
48215;SDS011;34005;48.844;10.098;2022-08-19T14:07:50;11.70;;;9.30;;
48215;SDS011;34005;48.844;10.098;2022-08-19T14:10:19;13.45;;;9.98;;
48215;SDS011;34005;48.844;10.098;2022-08-19T14:12:47;13.45;;;11.27;;
48215;SDS011;34005;48.844;10.098;2022-08-19T14:15:15;11.43;;;10.30;;
48215;SDS011;34005;48.844;10.098;2022-08-19T14:17:43;13.93;;;9.98;;
48215;SDS011;34005;48.844;10.098;2022-08-19T14:20:14;16.35;;;11.48;;
48215;SDS011;34005;48.844;10.098;2022-08-19T14:22:44;12.35;;;10.57;;
48215;SDS011;34005;48.844;10.098;2022-08-19T14:25:14;12.75;;;10.43;;
48215;SDS011;34005;48.844;10.098;2022-08-19T14:27:43;12.13;;;10.20;;
48215;SDS011;34005;48.844;10.098;2022-08-19T14:30:12;11.95;;;9.77;;
48215;SDS011;34005;48.844;10.098;2022-08-19T14:32:41;12.38;;;11.07;;
48215;SDS011;34005;48.844;10.098;2022-08-19T14:35:10;10.80;;;9.48;;
48215;SDS011;34005;48.844;10.098;2022-08-19T14:37:42;12.18;;;10.88;;
48215;SDS011;34005;48.844;10.098;2022-08-19T14:40:11;12.60;;;11.30;;
48215;SDS011;34005;48.844;10.098;2022-08-19T14:42:41;15.10;;;11.15;;